createdAt,value
2018-07-21T04:00:31.015Z,14.08
2018-07-21T04:01:30.938Z,14.06
2018-07-21T04:02:30.918Z,14.17
2018-07-21T04:03:30.914Z,14.06
2018-07-21T04:04:30.901Z,14.13
2018-07-21T04:05:30.888Z,14.06
2018-07-21T04:06:30.884Z,13.98
2018-07-21T04:07:30.873Z,14.16
2018-07-21T04:08:30.845Z,14.09
2018-07-21T04:09:30.833Z,13.99
2018-07-21T04:10:30.821Z,14.16
2018-07-21T04:11:30.820Z,14.08
2018-07-21T04:12:30.814Z,13.99
2018-07-21T04:13:30.786Z,13.98
2018-07-21T04:14:30.777Z,14.17
2018-07-21T04:15:30.764Z,14.05
2018-07-21T04:16:30.812Z,14.19
2018-07-21T04:17:30.757Z,14.20
2018-07-21T04:18:30.736Z,14.11
2018-07-21T04:19:30.721Z,14.19
2018-07-21T04:20:30.708Z,14.13
2018-07-21T04:21:30.696Z,14.11
2018-07-21T04:22:30.701Z,14.13
2018-07-21T04:23:30.684Z,14.08
2018-07-21T04:24:30.664Z,14.13
2018-07-21T04:25:30.652Z,14.05
2018-07-21T04:26:30.643Z,14.09
2018-07-21T04:27:30.650Z,14.01
2018-07-21T04:28:30.631Z,14.02
2018-07-21T04:29:30.629Z,14.04
2018-07-21T04:30:30.638Z,14.04
2018-07-21T04:31:30.584Z,14.09
2018-07-21T04:32:30.587Z,14.02
2018-07-21T04:33:30.561Z,14.02
2018-07-21T04:34:30.553Z,14.05
2018-07-21T04:35:30.544Z,14.01
2018-07-21T04:36:30.530Z,14.05
2018-07-21T04:37:30.527Z,14.09
2018-07-21T04:38:30.506Z,14.06
2018-07-21T04:39:30.503Z,14.12
2018-07-21T04:40:30.488Z,14.08
2018-07-21T04:41:30.472Z,14.19
2018-07-21T04:42:30.481Z,14.20
2018-07-21T04:43:30.450Z,14.21
2018-07-21T04:44:30.443Z,14.23
2018-07-21T04:45:30.428Z,14.21
2018-07-21T04:46:30.418Z,14.19
2018-07-21T04:47:30.414Z,14.21
2018-07-21T04:48:30.395Z,14.30
2018-07-21T04:49:30.406Z,14.17
2018-07-21T04:50:30.371Z,14.26
2018-07-21T04:51:30.368Z,14.26
2018-07-21T04:52:30.380Z,14.27
2018-07-21T04:53:30.338Z,14.31
2018-07-21T04:54:30.329Z,14.30
2018-07-21T04:55:30.318Z,14.48
2018-07-21T04:56:30.305Z,14.41
2018-07-21T04:57:30.292Z,14.52
2018-07-21T04:58:30.296Z,14.54
2018-07-21T04:59:30.278Z,14.52
2018-07-21T05:00:30.260Z,14.61
2018-07-21T05:01:30.253Z,14.54
2018-07-21T05:02:30.235Z,14.69
2018-07-21T05:03:30.235Z,14.69
2018-07-21T05:04:30.216Z,14.75
2018-07-21T05:05:30.202Z,14.67
2018-07-21T05:06:30.190Z,14.85
2018-07-21T05:07:30.237Z,14.87
2018-07-21T05:08:30.179Z,14.82
2018-07-21T05:09:30.178Z,14.83
2018-07-21T05:10:30.147Z,14.86
2018-07-21T05:11:30.134Z,14.93
2018-07-21T05:12:30.125Z,14.79
2018-07-21T05:13:30.127Z,14.94
2018-07-21T05:14:30.100Z,15.01
2018-07-21T05:15:30.096Z,14.98
2018-07-21T05:16:30.086Z,15.07
2018-07-21T05:17:30.074Z,15.05
2018-07-21T05:18:30.068Z,15.05
2018-07-21T05:19:30.047Z,15.04
2018-07-21T05:20:30.038Z,15.16
2018-07-21T05:21:30.029Z,15.25
2018-07-21T05:22:30.010Z,15.22
2018-07-21T05:23:30.015Z,15.33
2018-07-21T05:24:29.990Z,15.34
2018-07-21T05:25:29.983Z,15.41
2018-07-21T05:26:29.968Z,15.49
2018-07-21T05:27:29.955Z,15.44
2018-07-21T05:28:29.968Z,15.51
2018-07-21T05:29:29.945Z,15.53
2018-07-21T05:30:29.919Z,15.58
2018-07-21T05:31:29.910Z,15.67
2018-07-21T05:32:29.905Z,15.68
2018-07-21T05:33:29.943Z,15.78
2018-07-21T05:34:29.878Z,15.88
2018-07-21T05:35:29.865Z,15.89
2018-07-21T05:36:29.885Z,15.92
2018-07-21T05:37:29.855Z,15.93
2018-07-21T05:38:29.844Z,16.01
2018-07-21T05:39:29.823Z,16.03
2018-07-21T05:40:29.809Z,16.11
2018-07-21T05:41:29.800Z,16.18
2018-07-21T05:42:29.791Z,16.23
2018-07-21T05:43:29.827Z,16.30
2018-07-21T05:44:29.766Z,16.32
2018-07-21T05:45:29.753Z,16.41
2018-07-21T05:46:29.749Z,16.37
2018-07-21T05:47:29.745Z,16.45
2018-07-21T05:48:29.724Z,16.55
2018-07-21T05:49:29.723Z,16.63
2018-07-21T05:50:29.697Z,16.54
2018-07-21T05:51:29.703Z,16.63
2018-07-21T05:52:29.681Z,16.78
2018-07-21T05:53:29.669Z,16.87
2018-07-21T05:54:29.734Z,16.85
2018-07-21T05:55:29.660Z,16.96
2018-07-21T05:56:29.635Z,17.06
2018-07-21T05:57:29.618Z,17.02
2018-07-21T05:58:29.624Z,17.03
2018-07-21T05:59:29.611Z,17.09
2018-07-21T06:00:29.589Z,17.10
2018-07-21T06:01:29.576Z,17.12
2018-07-21T06:02:29.570Z,17.21
2018-07-21T06:03:29.550Z,17.30
2018-07-21T06:04:29.556Z,17.28
2018-07-21T06:05:29.534Z,17.49
2018-07-21T06:06:29.526Z,17.74
2018-07-21T06:07:29.505Z,18.02
2018-07-21T06:08:29.523Z,18.28
2018-07-21T06:09:29.500Z,18.49
2018-07-21T06:10:29.476Z,18.57
2018-07-21T06:11:29.469Z,18.75
2018-07-21T06:12:29.452Z,19.07
2018-07-21T06:13:29.442Z,19.28
2018-07-21T06:14:29.441Z,19.10
2018-07-21T06:15:29.416Z,19.15
2018-07-21T06:16:29.439Z,19.28
2018-07-21T06:17:29.401Z,19.07
2018-07-21T06:18:29.385Z,18.97
2018-07-21T06:19:29.393Z,19.34
2018-07-21T06:20:29.363Z,19.34
2018-07-21T06:21:29.366Z,19.20
2018-07-21T06:22:29.336Z,19.07
2018-07-21T06:23:29.328Z,18.86
2018-07-21T06:24:29.330Z,18.89
2018-07-21T06:25:29.309Z,18.82
2018-07-21T06:26:29.293Z,18.78
2018-07-21T06:27:29.282Z,18.66
2018-07-21T06:28:29.273Z,18.62
2018-07-21T06:29:29.323Z,18.62
2018-07-21T06:30:29.250Z,18.54
2018-07-21T06:31:29.237Z,18.56
2018-07-21T06:32:29.233Z,18.64
2018-07-21T06:33:29.218Z,18.65
2018-07-21T06:34:29.223Z,18.69
2018-07-21T06:35:29.241Z,18.65
2018-07-21T06:36:29.182Z,18.71
2018-07-21T06:37:29.173Z,18.72
2018-07-21T06:38:29.158Z,18.78
2018-07-21T06:39:29.149Z,18.74
2018-07-21T06:40:29.147Z,18.75
2018-07-21T06:41:29.145Z,18.79
2018-07-21T06:42:29.120Z,18.84
2018-07-21T06:43:29.106Z,18.79
2018-07-21T06:44:29.100Z,18.74
2018-07-21T06:45:29.094Z,18.75
2018-07-21T06:46:29.075Z,18.79
2018-07-21T06:47:29.060Z,18.79
2018-07-21T06:48:29.049Z,18.74
2018-07-21T06:49:29.052Z,18.75
2018-07-21T06:50:29.041Z,18.72
2018-07-21T06:51:29.026Z,18.75
2018-07-21T06:52:29.006Z,18.82
2018-07-21T06:53:28.994Z,18.84
2018-07-21T06:54:29.035Z,18.82
2018-07-21T06:55:28.984Z,18.83
2018-07-21T06:56:28.965Z,18.78
2018-07-21T06:57:28.951Z,18.83
2018-07-21T06:58:28.953Z,18.93
2018-07-21T06:59:28.965Z,18.89
2018-07-21T07:00:28.925Z,18.84
2018-07-21T07:01:28.971Z,18.87
2018-07-21T07:02:28.897Z,18.89
2018-07-21T07:03:28.882Z,18.97
2018-07-21T07:04:28.868Z,18.89
2018-07-21T07:05:28.871Z,18.93
2018-07-21T07:06:28.846Z,18.93
2018-07-21T07:07:28.835Z,18.87
2018-07-21T07:08:28.837Z,18.89
2018-07-21T07:09:28.812Z,18.87
2018-07-21T07:10:28.820Z,18.83
2018-07-21T07:11:28.799Z,18.78
2018-07-21T07:12:28.786Z,18.83
2018-07-21T07:13:28.777Z,18.86
2018-07-21T07:14:28.758Z,18.87
2018-07-21T07:15:28.758Z,18.91
2018-07-21T07:16:28.794Z,18.93
2018-07-21T07:17:28.728Z,19.01
2018-07-21T07:18:28.712Z,18.97
2018-07-21T07:19:28.701Z,19.09
2018-07-21T07:20:28.704Z,19.10
2018-07-21T07:21:28.684Z,19.07
2018-07-21T07:22:28.669Z,19.01
2018-07-21T07:23:28.655Z,19.12
2018-07-21T07:24:28.649Z,19.05
2018-07-21T07:25:28.657Z,18.99
2018-07-21T07:26:28.634Z,19.10
2018-07-21T07:27:28.650Z,19.09
2018-07-21T07:28:28.600Z,19.15
2018-07-21T07:29:28.588Z,19.20
2018-07-21T07:30:28.589Z,19.21
2018-07-21T07:31:28.578Z,19.28
2018-07-21T07:32:28.555Z,19.28
2018-07-21T07:33:28.547Z,19.27
2018-07-21T07:34:28.535Z,19.23
2018-07-21T07:35:28.527Z,19.34
2018-07-21T07:36:28.531Z,19.32
2018-07-21T07:37:28.503Z,19.39
2018-07-21T07:38:28.493Z,19.34
2018-07-21T07:39:28.480Z,19.38
2018-07-21T07:40:28.472Z,19.45
2018-07-21T07:41:28.470Z,19.42
2018-07-21T07:42:28.473Z,19.40
2018-07-21T07:43:28.433Z,19.38
2018-07-21T07:44:28.424Z,19.46
2018-07-21T07:45:28.410Z,19.47
2018-07-21T07:46:28.412Z,19.46
2018-07-21T07:47:28.397Z,19.45
2018-07-21T07:48:28.379Z,19.50
2018-07-21T07:49:28.366Z,19.55
2018-07-21T07:50:28.356Z,19.53
2018-07-21T07:51:28.357Z,19.39
2018-07-21T07:52:28.341Z,19.46
2018-07-21T07:53:28.347Z,19.53
2018-07-21T07:54:28.312Z,19.55
2018-07-21T07:55:28.299Z,19.47
2018-07-21T07:56:28.306Z,19.45
2018-07-21T07:57:28.282Z,19.52
2018-07-21T07:58:28.270Z,19.47
2018-07-21T07:59:28.255Z,19.55
2018-07-21T08:00:28.271Z,19.47
2018-07-21T08:01:28.245Z,19.47
2018-07-21T08:02:28.223Z,19.50
2018-07-21T08:03:28.210Z,19.49
2018-07-21T08:04:28.200Z,19.50
2018-07-21T08:05:28.189Z,19.49
2018-07-21T08:06:28.192Z,19.50
2018-07-21T08:07:28.167Z,19.43
2018-07-21T08:08:28.194Z,19.40
2018-07-21T08:09:28.144Z,19.49
2018-07-21T08:10:28.143Z,19.40
2018-07-21T08:11:28.139Z,19.39
2018-07-21T08:12:29.345Z,19.46
2018-07-21T08:13:28.107Z,19.39
2018-07-21T08:14:28.086Z,19.45
2018-07-21T08:15:28.089Z,19.40
2018-07-21T08:16:28.070Z,19.39
2018-07-21T08:17:28.066Z,19.40
2018-07-21T08:18:28.044Z,19.40
2018-07-21T08:19:28.089Z,19.38
2018-07-21T08:20:28.037Z,19.39
2018-07-21T08:21:28.013Z,19.31
2018-07-21T08:22:28.017Z,19.39
2018-07-21T08:23:27.986Z,19.32
2018-07-21T08:24:27.985Z,19.39
2018-07-21T08:25:27.964Z,19.38
2018-07-21T08:26:27.957Z,19.32
2018-07-21T08:27:27.959Z,19.39
2018-07-21T08:28:28.072Z,19.34
2018-07-21T08:29:27.930Z,19.39
2018-07-21T08:30:27.907Z,19.32
2018-07-21T08:31:27.900Z,19.39
2018-07-21T08:32:27.905Z,19.38
2018-07-21T08:33:27.874Z,19.39
2018-07-21T08:34:27.871Z,19.38
2018-07-21T08:35:28.077Z,19.38
2018-07-21T08:36:27.844Z,19.35
2018-07-21T08:37:27.855Z,19.46
2018-07-21T08:38:27.840Z,19.39
2018-07-21T08:39:28.073Z,19.46
2018-07-21T08:40:27.796Z,19.40
2018-07-21T08:41:27.785Z,19.40
2018-07-21T08:42:27.790Z,19.43
2018-07-21T08:43:27.831Z,19.42
2018-07-21T08:44:27.753Z,19.46
2018-07-21T08:45:27.745Z,19.40
2018-07-21T08:46:27.727Z,19.42
2018-07-21T08:47:27.729Z,19.50
2018-07-21T08:48:27.796Z,19.49
2018-07-21T08:49:27.854Z,19.55
2018-07-21T08:50:27.683Z,19.50
2018-07-21T08:51:27.672Z,19.53
2018-07-21T08:52:27.681Z,19.55
2018-07-21T08:53:27.728Z,19.53
2018-07-21T08:54:27.646Z,19.62
2018-07-21T08:55:27.628Z,19.61
2018-07-21T08:56:27.625Z,19.53
2018-07-21T08:57:27.621Z,19.68
2018-07-21T08:58:27.606Z,19.71
2018-07-21T08:59:27.583Z,19.70
2018-07-21T09:00:27.572Z,19.61
2018-07-21T09:01:27.562Z,19.60
2018-07-21T09:02:27.584Z,19.67
2018-07-21T09:03:27.540Z,19.65
2018-07-21T09:04:27.540Z,19.67
2018-07-21T09:05:27.531Z,19.71
2018-07-21T09:06:27.563Z,19.64
2018-07-21T09:07:27.533Z,19.71
2018-07-21T09:08:27.573Z,19.71
2018-07-21T09:09:27.528Z,19.67
2018-07-21T09:10:27.465Z,19.67
2018-07-21T09:11:27.447Z,19.67
2018-07-21T09:12:27.491Z,19.61
2018-07-21T09:13:27.461Z,19.61
2018-07-21T09:14:27.430Z,19.62
2018-07-21T09:15:27.408Z,19.64
2018-07-21T09:16:27.394Z,19.55
2018-07-21T09:17:27.382Z,19.68
2018-07-21T09:18:27.382Z,19.55
2018-07-21T09:19:27.359Z,19.52
2018-07-21T09:20:27.352Z,19.57
2018-07-21T09:21:27.376Z,19.61
2018-07-21T09:22:27.325Z,19.58
2018-07-21T09:23:27.335Z,19.57
2018-07-21T09:24:27.302Z,19.70
2018-07-21T09:25:27.304Z,19.58
2018-07-21T09:26:27.328Z,19.62
2018-07-21T09:27:27.271Z,19.65
2018-07-21T09:28:27.358Z,19.68
2018-07-21T09:29:27.255Z,19.78
2018-07-21T09:30:27.239Z,19.79
2018-07-21T09:31:27.375Z,19.78
2018-07-21T09:32:27.228Z,19.82
2018-07-21T09:33:27.215Z,19.86
2018-07-21T09:34:27.208Z,19.85
2018-07-21T09:35:27.185Z,19.85
2018-07-21T09:36:27.169Z,19.94
2018-07-21T09:37:27.164Z,19.97
2018-07-21T09:38:27.162Z,19.95
2018-07-21T09:39:27.146Z,19.86
2018-07-21T09:40:27.123Z,19.94
2018-07-21T09:41:27.114Z,20.00
2018-07-21T09:42:27.105Z,19.87
2018-07-21T09:43:27.104Z,19.92
2018-07-21T09:44:27.083Z,19.94
2018-07-21T09:45:27.080Z,19.94
2018-07-21T09:46:27.063Z,19.89
2018-07-21T09:47:27.045Z,19.89
2018-07-21T09:48:27.055Z,19.82
2018-07-21T09:49:27.027Z,19.82
2018-07-21T09:50:27.019Z,19.80
2018-07-21T09:51:27.005Z,19.78
2018-07-21T09:52:26.992Z,19.68
2018-07-21T09:53:26.990Z,19.78
2018-07-21T09:54:26.989Z,19.75
2018-07-21T09:55:26.958Z,19.70
2018-07-21T09:56:26.945Z,19.72
2018-07-21T09:57:26.933Z,19.71
2018-07-21T09:58:26.930Z,19.71
2018-07-21T09:59:26.936Z,19.72
2018-07-21T10:00:26.903Z,19.67
2018-07-21T10:01:26.917Z,19.70
2018-07-21T10:02:26.883Z,19.75
2018-07-21T10:03:26.869Z,19.71
2018-07-21T10:04:26.869Z,19.68
2018-07-21T10:05:26.846Z,19.70
2018-07-21T10:06:26.836Z,19.67
2018-07-21T10:07:26.820Z,19.61
2018-07-21T10:08:26.816Z,19.62
2018-07-21T10:09:26.817Z,19.60
2018-07-21T10:10:26.789Z,19.53
2018-07-21T10:11:26.783Z,19.62
2018-07-21T10:12:26.768Z,19.67
2018-07-21T10:13:26.755Z,19.64
2018-07-21T10:14:26.758Z,19.65
2018-07-21T10:15:26.770Z,19.60
2018-07-21T10:16:26.724Z,19.67
2018-07-21T10:17:26.711Z,19.57
2018-07-21T10:18:26.702Z,19.60
2018-07-21T10:19:26.706Z,19.65
2018-07-21T10:20:26.674Z,19.57
2018-07-21T10:21:26.678Z,19.61
2018-07-21T10:22:26.666Z,19.65
2018-07-21T10:23:26.645Z,19.57
2018-07-21T10:24:26.665Z,19.55
2018-07-21T10:25:26.624Z,19.53
2018-07-21T10:26:26.624Z,19.55
2018-07-21T10:27:26.604Z,19.58
2018-07-21T10:28:26.598Z,19.52
2018-07-21T10:29:26.596Z,19.53
2018-07-21T10:30:26.571Z,19.53
2018-07-21T10:31:26.557Z,19.45
2018-07-21T10:32:26.545Z,19.55
2018-07-21T10:33:26.685Z,19.47
2018-07-21T10:34:26.544Z,19.52
2018-07-21T10:35:26.510Z,19.52
2018-07-21T10:36:26.501Z,19.49
2018-07-21T10:37:26.488Z,19.57
2018-07-21T10:38:26.618Z,19.49
2018-07-21T10:39:26.472Z,19.45
2018-07-21T10:40:26.579Z,19.52
2018-07-21T10:41:26.487Z,19.42
2018-07-21T10:42:26.444Z,19.46
2018-07-21T10:43:26.423Z,19.39
2018-07-21T10:44:26.422Z,19.40
2018-07-21T10:45:26.415Z,19.39
2018-07-21T10:46:26.392Z,19.38
2018-07-21T10:47:26.520Z,19.45
2018-07-21T10:48:26.367Z,19.43
2018-07-21T10:49:26.356Z,19.38
2018-07-21T10:50:26.368Z,19.40
2018-07-21T10:51:26.334Z,19.35
2018-07-21T10:52:26.323Z,19.35
2018-07-21T10:53:26.319Z,19.34
2018-07-21T10:54:26.305Z,19.31
2018-07-21T10:55:26.327Z,19.38
2018-07-21T10:56:26.275Z,19.40
2018-07-21T10:57:26.265Z,19.45
2018-07-21T10:58:26.255Z,19.39
2018-07-21T10:59:26.338Z,19.39
2018-07-21T11:00:26.245Z,19.39
2018-07-21T11:01:26.328Z,19.45
2018-07-21T11:02:26.210Z,19.38
2018-07-21T11:03:26.242Z,19.35
2018-07-21T11:04:26.190Z,19.34
2018-07-21T11:05:26.258Z,19.46
2018-07-21T11:06:26.162Z,19.45
2018-07-21T11:07:26.155Z,19.46
2018-07-21T11:08:26.149Z,19.40
2018-07-21T11:09:26.133Z,19.39
2018-07-21T11:10:26.136Z,19.47
2018-07-21T11:11:26.111Z,19.45
2018-07-21T11:12:26.099Z,19.50
2018-07-21T11:13:26.091Z,19.57
2018-07-21T11:14:26.078Z,19.55
2018-07-21T11:15:26.126Z,19.55
2018-07-21T11:16:26.066Z,19.49
2018-07-21T11:17:26.141Z,19.55
2018-07-21T11:18:26.672Z,19.53
2018-07-21T11:19:26.020Z,19.55
2018-07-21T11:20:26.147Z,19.67
2018-07-21T11:21:26.009Z,19.58
2018-07-21T11:22:25.985Z,19.60
2018-07-21T11:23:26.131Z,19.55
2018-07-21T11:24:26.037Z,19.60
2018-07-21T11:25:25.973Z,19.62
2018-07-21T11:26:25.959Z,19.64
2018-07-21T11:27:25.932Z,19.71
2018-07-21T11:28:25.972Z,19.67
2018-07-21T11:29:25.909Z,19.70
2018-07-21T11:30:25.898Z,19.72
2018-07-21T11:31:25.896Z,19.76
2018-07-21T11:32:25.875Z,19.75
2018-07-21T11:33:25.862Z,19.76
2018-07-21T11:34:25.852Z,19.75
2018-07-21T11:35:25.892Z,19.72
2018-07-21T11:36:26.213Z,19.78
2018-07-21T11:37:25.820Z,19.80
2018-07-21T11:38:25.809Z,19.80
2018-07-21T11:39:25.808Z,19.82
2018-07-21T11:40:25.798Z,19.82
2018-07-21T11:41:25.806Z,19.86
2018-07-21T11:42:25.779Z,19.85
2018-07-21T11:43:25.764Z,19.80
2018-07-21T11:44:25.757Z,19.76
2018-07-21T11:45:25.732Z,19.82
2018-07-21T11:46:25.735Z,19.82
2018-07-21T11:47:25.710Z,19.78
2018-07-21T11:48:25.708Z,19.80
2018-07-21T11:49:25.721Z,19.85
2018-07-21T11:50:25.675Z,19.90
2018-07-21T11:51:25.678Z,19.82
2018-07-21T11:52:25.665Z,19.85
2018-07-21T11:53:25.648Z,19.92
2018-07-21T11:54:25.629Z,19.85
2018-07-21T11:55:25.618Z,19.97
2018-07-21T11:56:25.620Z,19.95
2018-07-21T11:57:25.597Z,20.00
2018-07-21T11:58:25.584Z,19.92
2018-07-21T11:59:25.577Z,19.90
2018-07-21T12:00:25.563Z,19.87
2018-07-21T12:01:25.570Z,19.89
2018-07-21T12:02:25.540Z,19.97
2018-07-21T12:03:25.529Z,19.94
2018-07-21T12:04:25.534Z,19.94
2018-07-21T12:05:25.627Z,19.94
2018-07-21T12:06:25.529Z,19.87
2018-07-21T12:07:25.502Z,19.90
2018-07-21T12:08:25.474Z,19.87
2018-07-21T12:09:25.518Z,19.89
2018-07-21T12:10:25.464Z,19.98
2018-07-21T12:11:25.460Z,20.00
2018-07-21T12:12:25.426Z,20.02
2018-07-21T12:13:25.482Z,20.00
2018-07-21T12:14:25.411Z,20.05
2018-07-21T12:15:25.405Z,19.98
2018-07-21T12:16:25.384Z,19.94
2018-07-21T12:17:25.382Z,20.10
2018-07-21T12:18:25.385Z,20.15
2018-07-21T12:19:25.351Z,20.12
2018-07-21T12:20:25.349Z,20.00
2018-07-21T12:21:25.329Z,20.00
2018-07-21T12:22:25.327Z,20.01
2018-07-21T12:23:25.309Z,19.98
2018-07-21T12:24:25.298Z,20.05
2018-07-21T12:25:25.298Z,20.07
2018-07-21T12:26:25.274Z,20.04
2018-07-21T12:27:25.345Z,19.98
2018-07-21T12:28:25.252Z,20.02
2018-07-21T12:29:25.239Z,20.04
2018-07-21T12:30:25.233Z,20.01
2018-07-21T12:31:25.217Z,19.97
2018-07-21T12:32:25.220Z,20.00
2018-07-21T12:33:25.247Z,19.94
2018-07-21T12:34:25.188Z,20.07
2018-07-21T12:35:25.173Z,20.01
2018-07-21T12:36:25.161Z,20.01
2018-07-21T12:37:25.161Z,20.02
2018-07-21T12:38:25.140Z,19.92
2018-07-21T12:39:25.133Z,20.02
2018-07-21T12:40:25.115Z,20.02
2018-07-21T12:41:25.220Z,20.01
2018-07-21T12:42:25.111Z,19.94
2018-07-21T12:43:25.087Z,20.04
2018-07-21T12:44:25.083Z,20.04
2018-07-21T12:45:25.061Z,19.98
2018-07-21T12:46:25.050Z,19.83
2018-07-21T12:47:25.051Z,19.95
2018-07-21T12:48:25.029Z,19.87
2018-07-21T12:49:25.019Z,19.90
2018-07-21T12:50:25.030Z,19.95
2018-07-21T12:51:25.005Z,19.90
2018-07-21T12:52:24.994Z,19.95
2018-07-21T12:53:24.974Z,19.89
2018-07-21T12:54:24.962Z,19.98
2018-07-21T12:55:24.948Z,19.89
2018-07-21T12:56:24.941Z,19.90
2018-07-21T12:57:24.943Z,19.85
2018-07-21T12:58:24.923Z,19.83
2018-07-21T12:59:24.904Z,19.80
2018-07-21T13:00:24.893Z,19.79
2018-07-21T13:01:25.012Z,19.82
2018-07-21T13:02:24.919Z,19.86
2018-07-21T13:03:24.862Z,19.78
2018-07-21T13:04:24.871Z,19.82
2018-07-21T13:05:24.841Z,19.68
2018-07-21T13:06:24.824Z,19.70
2018-07-21T13:07:24.813Z,19.68
2018-07-21T13:08:24.816Z,19.71
2018-07-21T13:09:24.792Z,19.70
2018-07-21T13:10:24.783Z,19.64
2018-07-21T13:11:24.773Z,19.67
2018-07-21T13:12:24.758Z,19.55
2018-07-21T13:13:24.764Z,19.64
2018-07-21T13:14:24.747Z,19.64
2018-07-21T13:15:24.725Z,19.68
2018-07-21T13:16:24.713Z,19.65
2018-07-21T13:17:24.704Z,19.65
2018-07-21T13:18:24.786Z,19.68
2018-07-21T13:19:24.687Z,19.70
2018-07-21T13:20:24.668Z,19.64
2018-07-21T13:21:24.656Z,19.64
2018-07-21T13:22:24.649Z,19.68
2018-07-21T13:23:24.658Z,19.62
2018-07-21T13:24:24.623Z,19.67
2018-07-21T13:25:24.681Z,19.67
2018-07-21T13:26:24.624Z,19.67
2018-07-21T13:27:24.592Z,19.67
2018-07-21T13:28:24.631Z,19.62
2018-07-21T13:29:24.584Z,19.68
2018-07-21T13:30:24.558Z,19.70
2018-07-21T13:31:24.548Z,19.82
2018-07-21T13:32:24.541Z,19.82
2018-07-21T13:33:24.557Z,19.68
2018-07-21T13:34:24.516Z,19.72
2018-07-21T13:35:24.503Z,19.68
2018-07-21T13:36:24.495Z,19.70
2018-07-21T13:37:24.534Z,19.71
2018-07-21T13:38:24.476Z,19.75
2018-07-21T13:39:24.471Z,19.71
2018-07-21T13:40:24.450Z,19.67
2018-07-21T13:41:24.442Z,19.76
2018-07-21T13:42:24.431Z,19.67
2018-07-21T13:43:24.421Z,19.70
2018-07-21T13:44:24.472Z,19.60
2018-07-21T13:45:24.392Z,19.55
2018-07-21T13:46:24.376Z,19.71
2018-07-21T13:47:24.369Z,19.61
2018-07-21T13:48:24.358Z,19.58
2018-07-21T13:49:24.360Z,19.64
2018-07-21T13:50:24.337Z,19.62
2018-07-21T13:51:24.328Z,19.65
2018-07-21T13:52:24.313Z,19.55
2018-07-21T13:53:24.302Z,19.68
2018-07-21T13:54:24.303Z,19.68
2018-07-21T13:55:24.281Z,19.64
2018-07-21T13:56:24.273Z,19.60
2018-07-21T13:57:24.256Z,19.55
2018-07-21T13:58:24.246Z,19.55
2018-07-21T13:59:24.249Z,19.55
2018-07-21T14:00:24.226Z,19.58
2018-07-21T14:01:24.210Z,19.53
2018-07-21T14:02:24.208Z,19.53
2018-07-21T14:03:24.196Z,19.53
2018-07-21T14:04:24.193Z,19.60
2018-07-21T14:05:24.178Z,19.58
2018-07-21T14:06:24.163Z,19.57
2018-07-21T14:07:24.147Z,19.53
2018-07-21T14:08:24.135Z,19.61
2018-07-21T14:09:24.121Z,19.67
2018-07-21T14:10:24.125Z,19.55
2018-07-21T14:11:24.099Z,19.57
2018-07-21T14:12:24.089Z,19.53
2018-07-21T14:13:24.081Z,19.57
2018-07-21T14:14:24.082Z,19.61
2018-07-21T14:15:24.069Z,19.52
2018-07-21T14:16:24.043Z,19.55
2018-07-21T14:17:24.033Z,19.60
2018-07-21T14:18:24.023Z,19.52
2018-07-21T14:19:24.013Z,19.52
2018-07-21T14:20:24.009Z,19.52
2018-07-21T14:21:23.990Z,19.55
2018-07-21T14:22:23.981Z,19.50
2018-07-21T14:23:23.980Z,19.52
2018-07-21T14:24:23.979Z,19.55
2018-07-21T14:25:23.958Z,19.53
2018-07-21T14:26:23.939Z,19.57
2018-07-21T14:27:23.921Z,19.52
2018-07-21T14:28:23.909Z,19.55
2018-07-21T14:29:23.897Z,19.65
2018-07-21T14:30:23.901Z,19.70
2018-07-21T14:31:23.876Z,19.58
2018-07-21T14:32:23.865Z,19.61
2018-07-21T14:33:23.855Z,19.65
2018-07-21T14:34:23.845Z,19.70
2018-07-21T14:35:23.849Z,19.60
2018-07-21T14:36:23.948Z,19.61
2018-07-21T14:37:23.816Z,19.62
2018-07-21T14:38:23.798Z,19.60
2018-07-21T14:39:23.787Z,19.61
2018-07-21T14:40:23.789Z,19.67
2018-07-21T14:41:23.766Z,19.58
2018-07-21T14:42:23.754Z,19.64
2018-07-21T14:43:23.746Z,19.68
2018-07-21T14:44:23.767Z,19.55
2018-07-21T14:45:23.738Z,19.62
2018-07-21T14:46:23.713Z,19.58
2018-07-21T14:47:23.891Z,19.58
2018-07-21T14:48:23.688Z,19.68
2018-07-21T14:49:23.686Z,19.61
2018-07-21T14:50:23.684Z,19.62
2018-07-21T14:51:23.656Z,19.60
2018-07-21T14:52:23.646Z,19.62
2018-07-21T14:53:23.634Z,19.64
2018-07-21T14:54:23.625Z,19.53
2018-07-21T14:55:23.716Z,19.67
2018-07-21T14:56:23.609Z,19.61
2018-07-21T14:57:23.587Z,19.64
2018-07-21T14:58:23.615Z,19.71
2018-07-21T14:59:23.572Z,19.65
2018-07-21T15:00:23.562Z,19.65
2018-07-21T15:01:23.591Z,19.72
2018-07-21T15:02:23.532Z,19.78
2018-07-21T15:03:23.528Z,19.67
2018-07-21T15:04:23.507Z,19.78
2018-07-21T15:05:23.503Z,19.83
2018-07-21T15:06:23.505Z,19.75
2018-07-21T15:07:23.477Z,19.82
2018-07-21T15:08:23.474Z,19.79
2018-07-21T15:09:23.465Z,19.78
2018-07-21T15:10:23.444Z,19.80
2018-07-21T15:11:23.449Z,19.85
2018-07-21T15:12:23.477Z,19.90
2018-07-21T15:13:23.441Z,19.94
2018-07-21T15:14:23.409Z,19.90
2018-07-21T15:15:23.389Z,19.97
2018-07-21T15:16:23.394Z,19.89
2018-07-21T15:17:23.361Z,19.89
2018-07-21T15:18:23.354Z,19.92
2018-07-21T15:19:23.403Z,20.00
2018-07-21T15:20:23.338Z,20.01
2018-07-21T15:21:23.329Z,19.97
2018-07-21T15:22:23.313Z,20.01
2018-07-21T15:23:23.337Z,20.10
2018-07-21T15:24:23.288Z,20.17
2018-07-21T15:25:23.288Z,20.13
2018-07-21T15:26:23.315Z,20.15
2018-07-21T15:27:23.329Z,20.10
2018-07-21T15:28:23.239Z,20.12
2018-07-21T15:29:23.234Z,20.04
2018-07-21T15:30:23.222Z,20.10
2018-07-21T15:31:23.303Z,20.10
2018-07-21T15:32:24.343Z,20.12
2018-07-21T15:33:23.225Z,20.19
2018-07-21T15:34:23.171Z,20.16
2018-07-21T15:35:23.162Z,20.13
2018-07-21T15:36:23.164Z,20.17
2018-07-21T15:37:23.141Z,20.05
2018-07-21T15:38:23.156Z,20.12
2018-07-21T15:39:23.118Z,20.08
2018-07-21T15:40:23.151Z,20.17
2018-07-21T15:41:23.190Z,20.12
2018-07-21T15:42:23.090Z,20.10
2018-07-21T15:43:23.078Z,20.20
2018-07-21T15:44:23.069Z,20.10
2018-07-21T15:45:23.055Z,20.20
2018-07-21T15:46:23.041Z,20.20
2018-07-21T15:47:23.044Z,20.19
2018-07-21T15:48:23.023Z,20.15
2018-07-21T15:49:23.011Z,20.23
2018-07-21T15:50:22.995Z,20.12
2018-07-21T15:51:22.985Z,20.13
2018-07-21T15:52:22.985Z,20.01
2018-07-21T15:53:22.963Z,20.04
2018-07-21T15:54:22.962Z,20.02
2018-07-21T15:55:22.941Z,20.00
2018-07-21T15:56:22.933Z,19.97
2018-07-21T15:57:23.107Z,20.02
2018-07-21T15:58:22.979Z,20.01
2018-07-21T15:59:22.893Z,19.97
2018-07-21T16:00:22.884Z,20.10
2018-07-21T16:01:22.898Z,20.10
2018-07-21T16:02:22.943Z,20.15
2018-07-21T16:03:22.851Z,20.16
2018-07-21T16:04:22.839Z,20.25
2018-07-21T16:05:22.828Z,20.22
2018-07-21T16:06:22.819Z,20.20
2018-07-21T16:07:22.817Z,20.20
2018-07-21T16:08:22.793Z,20.20
2018-07-21T16:09:22.784Z,20.20
2018-07-21T16:10:22.876Z,20.26
2018-07-21T16:11:22.762Z,20.31
2018-07-21T16:12:22.770Z,20.16
2018-07-21T16:13:22.738Z,20.15
2018-07-21T16:14:22.728Z,20.20
2018-07-21T16:15:22.757Z,20.17
2018-07-21T16:16:22.714Z,20.20
2018-07-21T16:17:23.130Z,20.17
2018-07-21T16:18:22.682Z,20.19
2018-07-21T16:19:22.672Z,20.17
2018-07-21T16:20:22.660Z,20.20
2018-07-21T16:21:24.411Z,20.12
2018-07-21T16:22:23.771Z,20.20
2018-07-21T16:23:23.762Z,20.16
2018-07-21T16:24:23.659Z,20.23
2018-07-21T16:25:23.789Z,20.15
2018-07-21T16:26:22.593Z,20.13
2018-07-21T16:27:22.593Z,20.16
2018-07-21T16:28:22.574Z,20.12
2018-07-21T16:29:22.584Z,20.16
2018-07-21T16:30:22.549Z,20.12
2018-07-21T16:31:22.549Z,20.08
2018-07-21T16:32:22.567Z,20.16
2018-07-21T16:33:22.550Z,20.13
2018-07-21T16:34:22.510Z,20.23
2018-07-21T16:35:22.496Z,20.12
2018-07-21T16:36:22.488Z,20.15
2018-07-21T16:37:22.489Z,20.08
2018-07-21T16:38:22.479Z,20.00
2018-07-21T16:39:22.448Z,19.97
2018-07-21T16:40:22.441Z,20.01
2018-07-21T16:41:22.460Z,20.04
2018-07-21T16:42:22.416Z,20.02
2018-07-21T16:43:22.422Z,20.01
2018-07-21T16:44:22.392Z,20.04
2018-07-21T16:45:22.383Z,20.10
2018-07-21T16:46:22.415Z,20.02
2018-07-21T16:47:22.362Z,20.01
2018-07-21T16:48:22.452Z,20.05
2018-07-21T16:49:22.342Z,20.05
2018-07-21T16:50:22.327Z,20.01
2018-07-21T16:51:22.315Z,20.01
2018-07-21T16:52:22.308Z,20.01